Special Weather Statement Special Weather Statement - Caledonia (Vermont)
Click on link above to see details on the 1 NOAA advisory for zone VTZ007.

Nearby METAR Reports

 

KCDA - Lyndonville, Vermont, USA
Distance from station: ENE 11mi, 18km
Updated: Thu, 19-Oct-2017 7:35pm EDT
Partly cloudy
Partly cloudy
 Wind from S
Wind: S 6 mph , 9 km/h
Temperature: 61°F , 16°C
Dew Point: 36°F , 2°C
Humidity: 39%
Barometer: 29.93 inHg , 1013.5 hPa
Clouds: Partly cloudy
Visibility: 10 miles , 16 km
Cloud details: Partly cloudy 7500 ft
2017/10/19 23:35 KCDA 192335Z AUTO 18005KT 10SM SCT075 16/02 A2993 RMK AO2 T01600017
K1V4 - St. Johnsbury, Vermont, USA
Distance from station: ESE 12mi, 19km
Updated: Thu, 19-Oct-2017 6:54pm EDT

 
Temperature: 64°F , 18°C
Dew Point: 37°F , 3°C
Humidity: 37%
Barometer: 29.88 inHg , 1011.9 hPa
2017/10/19 22:54 K1V4 192254Z AUTO 18/03 A2988 RMK AO1 SLP120 T01780028
 
KMVL - Morrisville, Vermont, USA
Distance from station: W 20mi, 31km
Updated: Thu, 19-Oct-2017 6:54pm EDT
Few Clouds
Few Clouds
 Wind from calm
Wind: Calm
Temperature: 57°F , 14°C
Dew Point: 39°F , 4°C
Humidity: 51%
Barometer: 29.91 inHg , 1012.9 hPa
Clouds: Few Clouds
Visibility: 10 miles , 16 km
Cloud details: Few Clouds 7500 ft
2017/10/19 22:54 KMVL 192254Z AUTO 00000KT 10SM FEW075 14/04 A2991 RMK AO2 SLP132 T01440044 TSNO
KEFK - Newport State, Vermont, USA
Distance from station: N 26mi, 42km
Updated: Thu, 19-Oct-2017 7:35pm EDT
Partly cloudy
Partly cloudy
 Wind from SW
Wind: SW 12 mph , 19 km/h
Temperature: 63°F , 17°C
Dew Point: 39°F , 4°C
Humidity: 42%
Barometer: 29.89 inHg , 1012.2 hPa
Clouds: Partly cloudy
Visibility: 10 miles , 16 km
Cloud details: Partly cloudy 8000 ft
2017/10/19 23:35 KEFK 192335Z AUTO 23010KT 10SM SCT080 17/04 A2989 RMK AO2 T01690042
 
KMPV - Montpelier/Barre, Vermont, USA
Distance from station: SW 27mi, 44km
Updated: Thu, 19-Oct-2017 6:51pm EDT
Clear
Clear
 Wind from calm
Wind: Calm
Temperature: 64°F , 18°C
Dew Point: 39°F , 4°C
Humidity: 40%
Barometer: 29.95 inHg , 1014.2 hPa
Clouds: Clear
Visibility: 10 miles , 16 km
2017/10/19 22:51 KMPV 192251Z AUTO 00000KT 10SM CLR 18/04 A2995 RMK AO2 SLP147 T01780044
KHIE - Whitefield, New Hampshire, USA
Distance from station: ESE 34mi, 55km
Updated: Thu, 19-Oct-2017 6:52pm EDT
Clear
Clear
 Wind from WSW
Wind: WSW 7 mph , 11 km/h
Temperature: 66°F , 19°C
Dew Point: 36°F , 2°C
Humidity: 32%
Barometer: 29.90 inHg , 1012.5 hPa
Clouds: Clear
Visibility: 10 miles , 16 km
2017/10/19 22:52 KHIE 192252Z AUTO 25006KT 10SM CLR 19/02 A2990 RMK AO2 SLP130 T01940022
 
KBTV - Burlington, Vermont, USA
Distance from station: W 46mi, 74km
Updated: Thu, 19-Oct-2017 6:54pm EDT
Mostly cloudy
Mostly cloudy
 Wind from SW
Wind: SW 12 mph , 19 km/h
Temperature: 70°F , 21°C
Dew Point: 41°F , 5°C
Humidity: 35%
Barometer: 29.90 inHg , 1012.5 hPa
Clouds: Mostly cloudy
Visibility: 10 miles , 16 km
Cloud details: Partly cloudy 7500 ft
Mostly cloudy 16000 ft
2017/10/19 22:54 KBTV 192254Z 23010KT 10SM SCT075 BKN160 21/05 A2990 RMK AO2 SLP124 T02110050
CWFQ - Frelighsburg, Quebec, Canada
Distance from station: NW 47mi, 75km
Updated: Thu, 19-Oct-2017 7:00pm EDT

 Wind from WSW
Wind: WSW 3 mph , 6 km/h
Temperature: 63°F , 17°C
Dew Point: 43°F , 6°C
Humidity: 49%
2017/10/19 23:00 CWFQ 192300Z AUTO 24003KT 17/06 RMK AO1 SLP118 T01740064
 
KMWN - Mount Washington, New Hampshire, USA
Distance from station: ESE 49mi, 79km
Updated: Thu, 19-Oct-2017 6:52pm EDT
Mostly cloudy
Mostly cloudy
 Wind from WSW
Wind: WSW 49 mph , 80 km/h
Temperature: 41°F , 5°C
Wind Chill: 27°F , -3°C
Dew Point: 32°F , 0°C
Humidity: 70%
Clouds: Mostly cloudy
Visibility: 95 miles , 152 km
Cloud details: Few Clouds 1500 ft
Partly cloudy 8000 ft
Partly cloudy 12000 ft
Mostly cloudy 14000 ft
Mostly cloudy 16000 ft
Mostly cloudy 18000 ft
2017/10/19 22:52 KMWN 192252Z 25043KT 95SM FEW015 SCT080 SCT120 BKN140 BKN160 BKN180 05/00 RMK VIRGA OHD
KBML - Berlin, New Hampshire, USA
Distance from station: E 51mi, 83km
Updated: Thu, 19-Oct-2017 6:52pm EDT
Clear
Clear
 Wind from SSW
Wind: SSW 9 mph , 15 km/h
Temperature: 66°F , 19°C
Dew Point: 36°F , 2°C
Humidity: 32%
Barometer: 29.88 inHg , 1011.9 hPa
Clouds: Clear
Visibility: 10 miles , 16 km
2017/10/19 22:52 KBML 192252Z AUTO 20008KT 10SM CLR 19/02 A2988 RMK AO2 SLP124 T01890017
 
KFSO - Highgate, Vermont, USA
Distance from station: NW 52mi, 84km
Updated: Thu, 19-Oct-2017 7:35pm EDT
Partly cloudy
Partly cloudy
 Wind from SSW
Wind: SSW 6 mph , 9 km/h
Temperature: 64°F , 18°C
Dew Point: 46°F , 8°C
Humidity: 52%
Barometer: 29.89 inHg , 1012.2 hPa
Clouds: Partly cloudy
Visibility: 10 miles , 16 km
Cloud details: Partly cloudy 6500 ft
Partly cloudy 7500 ft
2017/10/19 23:35 KFSO 192335Z AUTO 21005KT 10SM SCT065 SCT075 18/08 A2989 RMK AO2 T01810081
CWTT - Lac Memphremagog, Quebec, Canada
Distance from station: N 53mi, 85km
Updated: Thu, 19-Oct-2017 6:00pm EDT
NOT Current

 Wind from SW
Wind: SW 20 mph , 31 km/h
Temperature: 66°F , 19°C
Dew Point: 41°F , 5°C
Humidity: 40%
2017/10/19 22:00 CWTT 192200Z AUTO 23017KT 19/05 RMK AO1 PK WND 24025/2108 T01850054
 
K1P1 - Plymouth, New Hampshire, USA
Distance from station: SSE 55mi, 88km
Updated: Thu, 19-Oct-2017 7:35pm EDT
Clear
Clear
 Wind from calm
Wind: Calm
Temperature: 55°F , 13°C
Dew Point: 43°F , 6°C
Humidity: 63%
Barometer: 29.91 inHg , 1012.9 hPa
Clouds: Clear
Visibility: 10 miles , 16 km
2017/10/19 23:35 K1P1 192335Z AUTO 00000KT 10SM CLR 13/06 A2991 RMK AO2 T01280061
KLEB - Lebanon, New Hampshire, USA
Distance from station: S 60mi, 97km
Updated: Thu, 19-Oct-2017 6:53pm EDT
Clear
Clear
 Wind from S
Wind: S 3 mph , 6 km/h
Temperature: 61°F , 16°C
Dew Point: 43°F , 6°C
Humidity: 52%
Barometer: 29.92 inHg , 1013.2 hPa
Clouds: Clear
Visibility: 10 miles , 16 km
2017/10/19 22:53 KLEB 192253Z 18003KT 10SM CLR 16/06 A2992 RMK AO2 SLP134 T01560061
 
KPBG - Plattsburgh Afb, New York, USA
Distance from station: W 62mi, 100km
Updated: Thu, 19-Oct-2017 6:53pm EDT
Overcast
Overcast
 
Temperature: 70°F , 21°C
Dew Point: 43°F , 6°C
Humidity: 38%
Barometer: 29.89 inHg , 1012.2 hPa
Clouds: Overcast
Visibility: 10 miles , 16 km
Cloud details: Overcast 7000 ft
2017/10/19 22:53 KPBG 192253Z AUTO 10SM OVC070 21/06 A2989 RMK AO2 PK WND 22026/2157 SLP121 T02060056
CWQH - Lennoxville, Quebec, Canada
Distance from station: NNE 63mi, 101km
Updated: Thu, 19-Oct-2017 7:00pm EDT

 Wind from WSW
Wind: WSW 9 mph , 15 km/h, Gust: 18 mph , 30 km/h
Temperature: 66°F , 19°C
Dew Point: 39°F , 4°C
Humidity: 37%
2017/10/19 23:00 CWQH 192300Z AUTO 24008G16KT 19/04 RMK AO1 T01900041
 
CMGB - Granby, Quebec, Canada
Distance from station: NNW 65mi, 105km
Updated: Thu, 19-Oct-2017 7:30pm EDT

 Wind from WSW
Wind: WSW 9 mph , 15 km/h, Gust: 17 mph , 28 km/h
Temperature: 64°F , 18°C
Dew Point: 46°F , 8°C
Humidity: 52%
2017/10/19 23:30 CMGB 192330Z AUTO 24008G15KT 18/08 RMK AO1 SLP109 T01760082 53018
CYSC - Sherbrooke, Quebec, Canada
Distance from station: NNE 69mi, 112km
Updated: Thu, 19-Oct-2017 7:28pm EDT
Overcast
Overcast
 Wind from W
Wind: W 22 mph , 35 km/h
Temperature: 64°F , 18°C
Dew Point: 43°F , 6°C
Humidity: 46%
Barometer: 29.85 inHg , 1010.8 hPa
Clouds: Overcast
Visibility: 9 miles , 14 km
Cloud details: Mostly cloudy 7000 ft
Overcast 9000 ft
2017/10/19 23:28 CYSC 192328Z AUTO 28019KT 9SM BKN070 OVC090 18/06 A2985 RMK SLP113 DENSITY ALT 1400FT
 
KIZG - Fryeburg, Maine, USA
Distance from station: ESE 72mi, 117km
Updated: Thu, 19-Oct-2017 6:54pm EDT
Clear
Clear
 Wind from varies
Wind: varies 3 mph , 6 km/h
Temperature: 64°F , 18°C
Dew Point: 43°F , 6°C
Humidity: 46%
Barometer: 29.89 inHg , 1012.2 hPa
Clouds: Clear
Visibility: 10 miles , 16 km
2017/10/19 22:54 KIZG 192254Z AUTO VRB03KT 10SM CLR 18/06 A2989 RMK AO2 SLP125 T01830056